sensor_id;sensor_type;location;lat;lon;timestamp;pressure;altitude;pressure_sealevel;temperature
45034;BMP280;30771;47.988;-4.186;2024-02-14T00:01:06;100670.13;;;14.36
45034;BMP280;30771;47.988;-4.186;2024-02-14T00:03:36;100676.44;;;14.35
45034;BMP280;30771;47.988;-4.186;2024-02-14T00:06:05;100679.06;;;14.35
45034;BMP280;30771;47.988;-4.186;2024-02-14T00:08:32;100691.31;;;14.36
45034;BMP280;30771;47.988;-4.186;2024-02-14T00:10:59;100706.38;;;14.36
45034;BMP280;30771;47.988;-4.186;2024-02-14T00:13:27;100714.34;;;14.36
45034;BMP280;30771;47.988;-4.186;2024-02-14T00:15:53;100726.16;;;14.33
45034;BMP280;30771;47.988;-4.186;2024-02-14T00:18:20;100720.09;;;14.33
45034;BMP280;30771;47.988;-4.186;2024-02-14T00:20:49;100706.84;;;14.33
45034;BMP280;30771;47.988;-4.186;2024-02-14T00:23:16;100722.97;;;14.31
45034;BMP280;30771;47.988;-4.186;2024-02-14T00:25:43;100729.06;;;14.32
45034;BMP280;30771;47.988;-4.186;2024-02-14T00:28:09;100733.56;;;14.31
45034;BMP280;30771;47.988;-4.186;2024-02-14T00:30:36;100728.44;;;14.30
45034;BMP280;30771;47.988;-4.186;2024-02-14T00:33:03;100725.59;;;14.31
45034;BMP280;30771;47.988;-4.186;2024-02-14T00:35:30;100719.03;;;14.34
45034;BMP280;30771;47.988;-4.186;2024-02-14T00:37:57;100728.03;;;14.33
45034;BMP280;30771;47.988;-4.186;2024-02-14T00:40:24;100720.09;;;14.33
45034;BMP280;30771;47.988;-4.186;2024-02-14T00:42:51;100712.13;;;14.33
45034;BMP280;30771;47.988;-4.186;2024-02-14T00:45:17;100712.91;;;14.33
45034;BMP280;30771;47.988;-4.186;2024-02-14T00:47:44;100720.66;;;14.35
45034;BMP280;30771;47.988;-4.186;2024-02-14T00:50:11;100729.41;;;14.35
45034;BMP280;30771;47.988;-4.186;2024-02-14T00:52:40;100732.28;;;14.34
45034;BMP280;30771;47.988;-4.186;2024-02-14T00:55:08;100732.28;;;14.34
45034;BMP280;30771;47.988;-4.186;2024-02-14T00:57:35;100718.22;;;14.33
45034;BMP280;30771;47.988;-4.186;2024-02-14T01:00:02;100724.34;;;14.34
45034;BMP280;30771;47.988;-4.186;2024-02-14T01:02:30;100719.84;;;14.34
45034;BMP280;30771;47.988;-4.186;2024-02-14T01:04:57;100719.63;;;14.36
45034;BMP280;30771;47.988;-4.186;2024-02-14T01:07:24;100708.22;;;14.35
45034;BMP280;30771;47.988;-4.186;2024-02-14T01:09:51;100700.28;;;14.35
45034;BMP280;30771;47.988;-4.186;2024-02-14T01:12:17;100707.22;;;14.36
45034;BMP280;30771;47.988;-4.186;2024-02-14T01:14:44;100711.69;;;14.36
45034;BMP280;30771;47.988;-4.186;2024-02-14T01:17:11;100703.75;;;14.36
45034;BMP280;30771;47.988;-4.186;2024-02-14T01:19:38;100693.97;;;14.36
45034;BMP280;30771;47.988;-4.186;2024-02-14T01:22:04;100706.97;;;14.38
45034;BMP280;30771;47.988;-4.186;2024-02-14T01:24:31;100712.28;;;14.38
45034;BMP280;30771;47.988;-4.186;2024-02-14T01:26:58;100717.59;;;14.38
45034;BMP280;30771;47.988;-4.186;2024-02-14T01:29:25;100706.97;;;14.38
45034;BMP280;30771;47.988;-4.186;2024-02-14T01:31:52;100711.28;;;14.39
45034;BMP280;30771;47.988;-4.186;2024-02-14T01:34:19;100717.59;;;14.38
45034;BMP280;30771;47.988;-4.186;2024-02-14T01:36:48;100703.31;;;14.39
45034;BMP280;30771;47.988;-4.186;2024-02-14T01:39:15;100702.50;;;14.38
45034;BMP280;30771;47.988;-4.186;2024-02-14T01:41:45;100685.88;;;14.31
45034;BMP280;30771;47.988;-4.186;2024-02-14T01:44:15;100691.91;;;14.38
45034;BMP280;30771;47.988;-4.186;2024-02-14T01:46:44;100695.38;;;14.39
45034;BMP280;30771;47.988;-4.186;2024-02-14T01:49:11;100704.09;;;14.39
45034;BMP280;30771;47.988;-4.186;2024-02-14T01:51:42;100717.34;;;14.39
45034;BMP280;30771;47.988;-4.186;2024-02-14T01:54:12;100697.19;;;14.38
45034;BMP280;30771;47.988;-4.186;2024-02-14T01:56:39;100690.88;;;14.39
45034;BMP280;30771;47.988;-4.186;2024-02-14T01:59:07;100704.91;;;14.40
45034;BMP280;30771;47.988;-4.186;2024-02-14T02:01:35;100690.88;;;14.39
45034;BMP280;30771;47.988;-4.186;2024-02-14T02:04:04;100682.31;;;14.37
45034;BMP280;30771;47.988;-4.186;2024-02-14T02:06:31;100685.34;;;14.41
45034;BMP280;30771;47.988;-4.186;2024-02-14T02:08:59;100685.56;;;14.39
45034;BMP280;30771;47.988;-4.186;2024-02-14T02:11:26;100691.66;;;14.40
45034;BMP280;30771;47.988;-4.186;2024-02-14T02:13:53;100701.47;;;14.39
45034;BMP280;30771;47.988;-4.186;2024-02-14T02:16:19;100706.75;;;14.39
45034;BMP280;30771;47.988;-4.186;2024-02-14T02:18:47;100736.69;;;14.40
45034;BMP280;30771;47.988;-4.186;2024-02-14T02:21:15;100735.91;;;14.39
45034;BMP280;30771;47.988;-4.186;2024-02-14T02:23:42;100722.88;;;14.38
45034;BMP280;30771;47.988;-4.186;2024-02-14T02:26:10;100702.72;;;14.37
45034;BMP280;30771;47.988;-4.186;2024-02-14T02:28:37;100701.31;;;14.34
45034;BMP280;30771;47.988;-4.186;2024-02-14T02:31:06;100703.50;;;14.37
45034;BMP280;30771;47.988;-4.186;2024-02-14T02:33:33;100697.84;;;14.34
45034;BMP280;30771;47.988;-4.186;2024-02-14T02:36:00;100688.84;;;14.35
45034;BMP280;30771;47.988;-4.186;2024-02-14T02:38:27;100700.50;;;14.34
45034;BMP280;30771;47.988;-4.186;2024-02-14T02:40:53;100701.31;;;14.34
45034;BMP280;30771;47.988;-4.186;2024-02-14T02:43:20;100697.84;;;14.34
45034;BMP280;30771;47.988;-4.186;2024-02-14T02:45:48;100700.50;;;14.34
45034;BMP280;30771;47.988;-4.186;2024-02-14T02:48:14;100694.16;;;14.35
45034;BMP280;30771;47.988;-4.186;2024-02-14T02:50:41;100702.91;;;14.35
45034;BMP280;30771;47.988;-4.186;2024-02-14T02:53:11;100698.66;;;14.34
45034;BMP280;30771;47.988;-4.186;2024-02-14T02:55:38;100702.09;;;14.35
45034;BMP280;30771;47.988;-4.186;2024-02-14T02:58:05;100702.31;;;14.33
45034;BMP280;30771;47.988;-4.186;2024-02-14T03:00:33;100697.63;;;14.35
45034;BMP280;30771;47.988;-4.186;2024-02-14T03:03:00;100701.09;;;14.36
45034;BMP280;30771;47.988;-4.186;2024-02-14T03:05:29;100698.44;;;14.36
45034;BMP280;30771;47.988;-4.186;2024-02-14T03:07:58;100693.16;;;14.36
45034;BMP280;30771;47.988;-4.186;2024-02-14T03:10:26;100689.25;;;14.38
45034;BMP280;30771;47.988;-4.186;2024-02-14T03:12:52;100696.16;;;14.39
45034;BMP280;30771;47.988;-4.186;2024-02-14T03:15:19;100690.28;;;14.37
45034;BMP280;30771;47.988;-4.186;2024-02-14T03:17:46;100692.91;;;14.37
45034;BMP280;30771;47.988;-4.186;2024-02-14T03:20:13;100702.25;;;14.40
45034;BMP280;30771;47.988;-4.186;2024-02-14T03:22:44;100685.78;;;14.38
45034;BMP280;30771;47.988;-4.186;2024-02-14T03:25:18;100691.31;;;14.36
45034;BMP280;30771;47.988;-4.186;2024-02-14T03:27:45;100676.25;;;14.37
45034;BMP280;30771;47.988;-4.186;2024-02-14T03:30:16;100670.94;;;14.37
45034;BMP280;30771;47.988;-4.186;2024-02-14T03:32:45;100687.63;;;14.37
45034;BMP280;30771;47.988;-4.186;2024-02-14T03:35:12;100693.75;;;14.38
45034;BMP280;30771;47.988;-4.186;2024-02-14T03:37:43;100684.38;;;14.35
45034;BMP280;30771;47.988;-4.186;2024-02-14T03:40:14;100680.50;;;14.38
45034;BMP280;30771;47.988;-4.186;2024-02-14T03:42:41;100688.44;;;14.38
45034;BMP280;30771;47.988;-4.186;2024-02-14T03:45:08;100684.19;;;14.37
45034;BMP280;30771;47.988;-4.186;2024-02-14T03:47:36;100684.97;;;14.37
45034;BMP280;30771;47.988;-4.186;2024-02-14T03:50:08;100691.66;;;14.40
45034;BMP280;30771;47.988;-4.186;2024-02-14T03:52:34;100670.13;;;14.36
45034;BMP280;30771;47.988;-4.186;2024-02-14T03:55:02;100679.47;;;14.39
45034;BMP280;30771;47.988;-4.186;2024-02-14T03:57:29;100670.72;;;14.38
45034;BMP280;30771;47.988;-4.186;2024-02-14T03:59:58;100676.00;;;14.38
45034;BMP280;30771;47.988;-4.186;2024-02-14T04:02:26;100685.78;;;14.38
45034;BMP280;30771;47.988;-4.186;2024-02-14T04:04:55;100683.13;;;14.38
45034;BMP280;30771;47.988;-4.186;2024-02-14T04:07:21;100687.44;;;14.39
45034;BMP280;30771;47.988;-4.186;2024-02-14T04:09:48;100681.53;;;14.37
45034;BMP280;30771;47.988;-4.186;2024-02-14T04:12:15;100682.53;;;14.36
45034;BMP280;30771;47.988;-4.186;2024-02-14T04:14:42;100683.13;;;14.38
45034;BMP280;30771;47.988;-4.186;2024-02-14T04:17:09;100668.28;;;14.37
45034;BMP280;30771;47.988;-4.186;2024-02-14T04:19:38;100670.94;;;14.37
45034;BMP280;30771;47.988;-4.186;2024-02-14T04:22:05;100677.84;;;14.38
45034;BMP280;30771;47.988;-4.186;2024-02-14T04:24:35;100668.28;;;14.37
45034;BMP280;30771;47.988;-4.186;2024-02-14T04:27:02;100674.00;;;14.34
45034;BMP280;30771;47.988;-4.186;2024-02-14T04:29:31;100665.84;;;14.35
45034;BMP280;30771;47.988;-4.186;2024-02-14T04:32:01;100676.44;;;14.35
45034;BMP280;30771;47.988;-4.186;2024-02-14T04:34:28;100666.06;;;14.34
45034;BMP280;30771;47.988;-4.186;2024-02-14T04:36:55;100675.59;;;14.35
45034;BMP280;30771;47.988;-4.186;2024-02-14T04:39:21;100677.25;;;14.36
45034;BMP280;30771;47.988;-4.186;2024-02-14T04:41:48;100679.53;;;14.32
45034;BMP280;30771;47.988;-4.186;2024-02-14T04:44:27;100679.31;;;14.34
45034;BMP280;30771;47.988;-4.186;2024-02-14T04:46:54;100688.84;;;14.35
45034;BMP280;30771;47.988;-4.186;2024-02-14T04:49:23;100678.25;;;14.35
45034;BMP280;30771;47.988;-4.186;2024-02-14T04:51:51;100678.06;;;14.36
45034;BMP280;30771;47.988;-4.186;2024-02-14T04:54:18;100685.19;;;14.36
45034;BMP280;30771;47.988;-4.186;2024-02-14T04:56:44;100695.78;;;14.36
45034;BMP280;30771;47.988;-4.186;2024-02-14T04:59:18;100698.88;;;14.33
45034;BMP280;30771;47.988;-4.186;2024-02-14T05:01:45;100694.78;;;14.37
45034;BMP280;30771;47.988;-4.186;2024-02-14T05:04:12;100709.84;;;14.36
45034;BMP280;30771;47.988;-4.186;2024-02-14T05:06:39;100704.09;;;14.39
45034;BMP280;30771;47.988;-4.186;2024-02-14T05:09:06;100713.91;;;14.39
45034;BMP280;30771;47.988;-4.186;2024-02-14T05:11:33;100717.34;;;14.39
45034;BMP280;30771;47.988;-4.186;2024-02-14T05:14:01;100702.50;;;14.38
45034;BMP280;30771;47.988;-4.186;2024-02-14T05:16:28;100704.91;;;14.40
45034;BMP280;30771;47.988;-4.186;2024-02-14T05:18:55;100700.22;;;14.42
45034;BMP280;30771;47.988;-4.186;2024-02-14T05:21:22;100690.41;;;14.43
45034;BMP280;30771;47.988;-4.186;2024-02-14T05:23:49;100694.94;;;14.42
45034;BMP280;30771;47.988;-4.186;2024-02-14T05:26:16;100687.75;;;14.43
45034;BMP280;30771;47.988;-4.186;2024-02-14T05:28:43;100691.47;;;14.42
45034;BMP280;30771;47.988;-4.186;2024-02-14T05:31:10;100704.28;;;14.45
45034;BMP280;30771;47.988;-4.186;2024-02-14T05:33:36;100705.88;;;14.46
45034;BMP280;30771;47.988;-4.186;2024-02-14T05:36:04;100713.59;;;14.47
45034;BMP280;30771;47.988;-4.186;2024-02-14T05:38:32;100709.94;;;14.48
45034;BMP280;30771;47.988;-4.186;2024-02-14T05:41:01;100711.75;;;14.48
45034;BMP280;30771;47.988;-4.186;2024-02-14T05:43:27;100726.19;;;14.52
45034;BMP280;30771;47.988;-4.186;2024-02-14T05:45:54;100727.81;;;14.53
45034;BMP280;30771;47.988;-4.186;2024-02-14T05:48:22;100712.13;;;14.51
45034;BMP280;30771;47.988;-4.186;2024-02-14T05:50:49;100703.94;;;14.53
45034;BMP280;30771;47.988;-4.186;2024-02-14T05:53:16;100703.13;;;14.52
45034;BMP280;30771;47.988;-4.186;2024-02-14T05:55:43;100700.47;;;14.52
45034;BMP280;30771;47.988;-4.186;2024-02-14T05:58:09;100699.47;;;14.53
45034;BMP280;30771;47.988;-4.186;2024-02-14T06:00:36;100685.63;;;14.51
45034;BMP280;30771;47.988;-4.186;2024-02-14T06:03:03;100690.69;;;14.53
45034;BMP280;30771;47.988;-4.186;2024-02-14T06:05:34;100695.59;;;14.56
45034;BMP280;30771;47.988;-4.186;2024-02-14T06:08:01;100710.88;;;14.54
45034;BMP280;30771;47.988;-4.186;2024-02-14T06:10:30;100717.00;;;14.54
45034;BMP280;30771;47.988;-4.186;2024-02-14T06:12:56;100729.03;;;14.57
45034;BMP280;30771;47.988;-4.186;2024-02-14T06:15:23;100722.31;;;14.54
45034;BMP280;30771;47.988;-4.186;2024-02-14T06:17:50;100726.78;;;14.54
45034;BMP280;30771;47.988;-4.186;2024-02-14T06:20:17;100716.19;;;14.54
45034;BMP280;30771;47.988;-4.186;2024-02-14T06:22:44;100708.25;;;14.54
45034;BMP280;30771;47.988;-4.186;2024-02-14T06:25:22;100702.72;;;14.55
45034;BMP280;30771;47.988;-4.186;2024-02-14T06:27:49;100714.78;;;14.51
45034;BMP280;30771;47.988;-4.186;2024-02-14T06:30:16;100718.03;;;14.53
45034;BMP280;30771;47.988;-4.186;2024-02-14T06:32:44;100710.53;;;14.50
45034;BMP280;30771;47.988;-4.186;2024-02-14T06:35:12;100714.78;;;14.51
45034;BMP280;30771;47.988;-4.186;2024-02-14T06:37:42;100714.22;;;14.49
45034;BMP280;30771;47.988;-4.186;2024-02-14T06:40:21;100707.28;;;14.48
45034;BMP280;30771;47.988;-4.186;2024-02-14T06:42:48;100721.75;;;14.46
45034;BMP280;30771;47.988;-4.186;2024-02-14T06:45:18;100716.22;;;14.47
45034;BMP280;30771;47.988;-4.186;2024-02-14T06:47:44;100720.75;;;14.47
45034;BMP280;30771;47.988;-4.186;2024-02-14T06:50:12;100731.34;;;14.47
45034;BMP280;30771;47.988;-4.186;2024-02-14T06:52:38;100728.91;;;14.45
45034;BMP280;30771;47.988;-4.186;2024-02-14T06:55:05;100727.06;;;14.46
45034;BMP280;30771;47.988;-4.186;2024-02-14T06:57:32;100729.72;;;14.46
45034;BMP280;30771;47.988;-4.186;2024-02-14T06:59:59;100739.53;;;14.45
45034;BMP280;30771;47.988;-4.186;2024-02-14T07:02:26;100743.78;;;14.46
45034;BMP280;30771;47.988;-4.186;2024-02-14T07:04:55;100742.97;;;14.46
45034;BMP280;30771;47.988;-4.186;2024-02-14T07:07:21;100747.69;;;14.44
45034;BMP280;30771;47.988;-4.186;2024-02-14T07:09:48;100750.56;;;14.42
45034;BMP280;30771;47.988;-4.186;2024-02-14T07:12:15;100752.41;;;14.42
45034;BMP280;30771;47.988;-4.186;2024-02-14T07:14:41;100749.94;;;14.40
45034;BMP280;30771;47.988;-4.186;2024-02-14T07:17:08;100753.41;;;14.40
45034;BMP280;30771;47.988;-4.186;2024-02-14T07:19:35;100760.19;;;14.36
45034;BMP280;30771;47.988;-4.186;2024-02-14T07:22:02;100761.63;;;14.39
45034;BMP280;30771;47.988;-4.186;2024-02-14T07:24:29;100779.34;;;14.38
45034;BMP280;30771;47.988;-4.186;2024-02-14T07:26:55;100768.75;;;14.38
45034;BMP280;30771;47.988;-4.186;2024-02-14T07:29:23;100768.75;;;14.38
45034;BMP280;30771;47.988;-4.186;2024-02-14T07:31:50;100776.91;;;14.37
45034;BMP280;30771;47.988;-4.186;2024-02-14T07:34:16;100781.56;;;14.35
45034;BMP280;30771;47.988;-4.186;2024-02-14T07:36:44;100793.41;;;14.39
45034;BMP280;30771;47.988;-4.186;2024-02-14T07:39:12;100786.09;;;14.34
45034;BMP280;30771;47.988;-4.186;2024-02-14T07:41:39;100791.53;;;14.39
45034;BMP280;30771;47.988;-4.186;2024-02-14T07:44:06;100785.19;;;14.40
45034;BMP280;30771;47.988;-4.186;2024-02-14T07:46:34;100786.84;;;14.42
45034;BMP280;30771;47.988;-4.186;2024-02-14T07:49:01;100791.31;;;14.41
45034;BMP280;30771;47.988;-4.186;2024-02-14T07:51:28;100790.91;;;14.44
45034;BMP280;30771;47.988;-4.186;2024-02-14T07:53:55;100792.75;;;14.44
45034;BMP280;30771;47.988;-4.186;2024-02-14T07:56:22;100792.50;;;14.45
45034;BMP280;30771;47.988;-4.186;2024-02-14T07:58:49;100791.91;;;14.43
45034;BMP280;30771;47.988;-4.186;2024-02-14T08:01:16;100797.03;;;14.45
45034;BMP280;30771;47.988;-4.186;2024-02-14T08:03:43;100802.31;;;14.45
45034;BMP280;30771;47.988;-4.186;2024-02-14T08:06:13;100793.97;;;14.41
45034;BMP280;30771;47.988;-4.186;2024-02-14T08:08:40;100795.16;;;14.45
45034;BMP280;30771;47.988;-4.186;2024-02-14T08:11:07;100795.16;;;14.45
45034;BMP280;30771;47.988;-4.186;2024-02-14T08:13:34;100800.25;;;14.47
45034;BMP280;30771;47.988;-4.186;2024-02-14T08:16:01;100788.00;;;14.46
45034;BMP280;30771;47.988;-4.186;2024-02-14T08:18:27;100792.06;;;14.48
45034;BMP280;30771;47.988;-4.186;2024-02-14T08:20:54;100795.72;;;14.47
45034;BMP280;30771;47.988;-4.186;2024-02-14T08:23:21;100801.66;;;14.49
45034;BMP280;30771;47.988;-4.186;2024-02-14T08:25:49;100796.56;;;14.48
45034;BMP280;30771;47.988;-4.186;2024-02-14T08:28:15;100801.19;;;14.52
45034;BMP280;30771;47.988;-4.186;2024-02-14T08:30:44;100802.59;;;14.55
45034;BMP280;30771;47.988;-4.186;2024-02-14T08:33:11;100804.25;;;14.56
45034;BMP280;30771;47.988;-4.186;2024-02-14T08:35:38;100801.59;;;14.56
45034;BMP280;30771;47.988;-4.186;2024-02-14T08:38:09;100802.75;;;14.60
45034;BMP280;30771;47.988;-4.186;2024-02-14T08:40:36;100809.47;;;14.62
45034;BMP280;30771;47.988;-4.186;2024-02-14T08:43:03;100805.56;;;14.65
45034;BMP280;30771;47.988;-4.186;2024-02-14T08:45:31;100805.34;;;14.66
45034;BMP280;30771;47.988;-4.186;2024-02-14T08:47:58;100811.81;;;14.70
45034;BMP280;30771;47.988;-4.186;2024-02-14T08:50:25;100806.09;;;14.73
45034;BMP280;30771;47.988;-4.186;2024-02-14T08:52:52;100815.06;;;14.72
45034;BMP280;30771;47.988;-4.186;2024-02-14T08:55:18;100809.19;;;14.70
45034;BMP280;30771;47.988;-4.186;2024-02-14T08:57:45;100806.31;;;14.72
45034;BMP280;30771;47.988;-4.186;2024-02-14T09:00:15;100802.84;;;14.71
45034;BMP280;30771;47.988;-4.186;2024-02-14T09:02:46;100806.44;;;14.77
45034;BMP280;30771;47.988;-4.186;2024-02-14T09:05:14;100811.75;;;14.77
45034;BMP280;30771;47.988;-4.186;2024-02-14T09:07:40;100818.25;;;14.81
45034;BMP280;30771;47.988;-4.186;2024-02-14T09:10:08;100811.91;;;14.82
45034;BMP280;30771;47.988;-4.186;2024-02-14T09:12:37;100814.34;;;14.83
45034;BMP280;30771;47.988;-4.186;2024-02-14T09:15:04;100817.00;;;14.83
45034;BMP280;30771;47.988;-4.186;2024-02-14T09:17:32;100825.69;;;14.90
45034;BMP280;30771;47.988;-4.186;2024-02-14T09:19:59;100829.75;;;14.93
45034;BMP280;30771;47.988;-4.186;2024-02-14T09:22:26;100827.91;;;14.93
45034;BMP280;30771;47.988;-4.186;2024-02-14T09:24:53;100831.72;;;14.97
45034;BMP280;30771;47.988;-4.186;2024-02-14T09:27:20;100823.13;;;15.02
45034;BMP280;30771;47.988;-4.186;2024-02-14T09:29:46;100817.38;;;15.05
45034;BMP280;30771;47.988;-4.186;2024-02-14T09:32:13;100824.94;;;15.01
45034;BMP280;30771;47.988;-4.186;2024-02-14T09:34:40;100829.38;;;15.07
45034;BMP280;30771;47.988;-4.186;2024-02-14T09:37:07;100835.25;;;15.09
45034;BMP280;30771;47.988;-4.186;2024-02-14T09:39:36;100849.69;;;15.13
45034;BMP280;30771;47.988;-4.186;2024-02-14T09:42:09;100833.56;;;15.15
45034;BMP280;30771;47.988;-4.186;2024-02-14T09:44:37;100842.47;;;15.20
45034;BMP280;30771;47.988;-4.186;2024-02-14T09:47:05;100842.25;;;15.22
45034;BMP280;30771;47.988;-4.186;2024-02-14T09:49:35;100853.19;;;15.25
45034;BMP280;30771;47.988;-4.186;2024-02-14T09:52:03;100845.25;;;15.25
45034;BMP280;30771;47.988;-4.186;2024-02-14T09:54:31;100865.03;;;15.29
45034;BMP280;30771;47.988;-4.186;2024-02-14T09:56:58;100868.69;;;15.28
45034;BMP280;30771;47.988;-4.186;2024-02-14T09:59:25;100877.25;;;15.30
45034;BMP280;30771;47.988;-4.186;2024-02-14T10:01:52;100872.53;;;15.32
45034;BMP280;30771;47.988;-4.186;2024-02-14T10:04:19;100879.47;;;15.33
45034;BMP280;30771;47.988;-4.186;2024-02-14T10:06:51;100879.13;;;15.30
45034;BMP280;30771;47.988;-4.186;2024-02-14T10:09:22;100889.47;;;15.31
45034;BMP280;30771;47.988;-4.186;2024-02-14T10:11:49;100898.03;;;15.33
45034;BMP280;30771;47.988;-4.186;2024-02-14T10:14:16;100904.75;;;15.36
45034;BMP280;30771;47.988;-4.186;2024-02-14T10:16:42;100910.06;;;15.36
45034;BMP280;30771;47.988;-4.186;2024-02-14T10:19:16;100918.25;;;15.34
45034;BMP280;30771;47.988;-4.186;2024-02-14T10:21:44;100916.56;;;15.40
45034;BMP280;30771;47.988;-4.186;2024-02-14T10:24:21;100911.38;;;15.45
45034;BMP280;30771;47.988;-4.186;2024-02-14T10:26:48;100922.13;;;15.50
45034;BMP280;30771;47.988;-4.186;2024-02-14T10:29:15;100916.94;;;15.55
45034;BMP280;30771;47.988;-4.186;2024-02-14T10:31:41;100922.22;;;15.62
45034;BMP280;30771;47.988;-4.186;2024-02-14T10:34:08;100930.50;;;15.65
45034;BMP280;30771;47.988;-4.186;2024-02-14T10:36:37;100937.59;;;15.71
45034;BMP280;30771;47.988;-4.186;2024-02-14T10:39:07;100950.66;;;15.73
45034;BMP280;30771;47.988;-4.186;2024-02-14T10:41:36;100946.16;;;15.73
45034;BMP280;30771;47.988;-4.186;2024-02-14T10:44:03;100960.44;;;15.72
45034;BMP280;30771;47.988;-4.186;2024-02-14T10:46:36;100962.91;;;15.74
45034;BMP280;30771;47.988;-4.186;2024-02-14T10:49:05;100970.28;;;15.72
45034;BMP280;30771;47.988;-4.186;2024-02-14T10:51:33;100970.88;;;15.74
45034;BMP280;30771;47.988;-4.186;2024-02-14T10:54:04;100977.19;;;15.73
45034;BMP280;30771;47.988;-4.186;2024-02-14T10:56:32;100980.66;;;15.73
45034;BMP280;30771;47.988;-4.186;2024-02-14T10:59:00;100990.28;;;15.74
45034;BMP280;30771;47.988;-4.186;2024-02-14T11:01:29;100989.19;;;15.75
45034;BMP280;30771;47.988;-4.186;2024-02-14T11:04:00;100999.00;;;15.75
45034;BMP280;30771;47.988;-4.186;2024-02-14T11:06:27;101005.53;;;15.79
45034;BMP280;30771;47.988;-4.186;2024-02-14T11:09:00;100997.44;;;15.85
45034;BMP280;30771;47.988;-4.186;2024-02-14T11:11:29;100995.34;;;15.94
45034;BMP280;30771;47.988;-4.186;2024-02-14T11:13:59;100993.00;;;15.97
45034;BMP280;30771;47.988;-4.186;2024-02-14T11:16:26;101009.91;;;16.03
45034;BMP280;30771;47.988;-4.186;2024-02-14T11:19:29;101005.41;;;16.03
45034;BMP280;30771;47.988;-4.186;2024-02-14T11:21:57;101011.66;;;16.09
45034;BMP280;30771;47.988;-4.186;2024-02-14T11:24:28;101012.03;;;16.12
45034;BMP280;30771;47.988;-4.186;2024-02-14T11:26:56;101012.41;;;16.16
45034;BMP280;30771;47.988;-4.186;2024-02-14T11:29:29;101020.13;;;16.17
45034;BMP280;30771;47.988;-4.186;2024-02-14T11:31:59;101016.47;;;16.18
45034;BMP280;30771;47.988;-4.186;2024-02-14T11:34:30;101022.34;;;16.20
45034;BMP280;30771;47.988;-4.186;2024-02-14T11:37:04;101036.22;;;16.22
45034;BMP280;30771;47.988;-4.186;2024-02-14T11:39:35;101036.47;;;16.21
45034;BMP280;30771;47.988;-4.186;2024-02-14T11:42:02;101024.47;;;16.12
45034;BMP280;30771;47.988;-4.186;2024-02-14T11:44:29;101036.91;;;16.18
45034;BMP280;30771;47.988;-4.186;2024-02-14T11:46:56;101033.69;;;16.16
45034;BMP280;30771;47.988;-4.186;2024-02-14T11:49:23;101036.97;;;16.11
45034;BMP280;30771;47.988;-4.186;2024-02-14T11:51:50;101042.75;;;16.08
45034;BMP280;30771;47.988;-4.186;2024-02-14T11:54:17;101027.41;;;16.10
45034;BMP280;30771;47.988;-4.186;2024-02-14T11:56:47;101021.63;;;16.13
45034;BMP280;30771;47.988;-4.186;2024-02-14T11:59:14;101014.94;;;16.22
45034;BMP280;30771;47.988;-4.186;2024-02-14T12:01:43;101014.28;;;16.27
45034;BMP280;30771;47.988;-4.186;2024-02-14T12:04:10;101014.84;;;16.29
45034;BMP280;30771;47.988;-4.186;2024-02-14T12:06:39;101021.22;;;16.28
45034;BMP280;30771;47.988;-4.186;2024-02-14T12:09:08;101025.16;;;16.25
45034;BMP280;30771;47.988;-4.186;2024-02-14T12:11:36;101030.19;;;16.15
45034;BMP280;30771;47.988;-4.186;2024-02-14T12:14:10;101014.31;;;16.09
45034;BMP280;30771;47.988;-4.186;2024-02-14T12:16:37;101021.34;;;16.03
45034;BMP280;30771;47.988;-4.186;2024-02-14T12:19:14;101034.28;;;16.00
45034;BMP280;30771;47.988;-4.186;2024-02-14T12:21:43;101024.31;;;15.95
45034;BMP280;30771;47.988;-4.186;2024-02-14T12:24:11;101015.16;;;15.91
45034;BMP280;30771;47.988;-4.186;2024-02-14T12:26:38;101018.13;;;15.83
45034;BMP280;30771;47.988;-4.186;2024-02-14T12:29:07;101007.16;;;15.80
45034;BMP280;30771;47.988;-4.186;2024-02-14T12:31:34;101005.72;;;15.77
45034;BMP280;30771;47.988;-4.186;2024-02-14T12:34:03;101002.94;;;15.72
45034;BMP280;30771;47.988;-4.186;2024-02-14T12:36:32;100990.91;;;15.70
45034;BMP280;30771;47.988;-4.186;2024-02-14T12:39:00;100988.72;;;15.67
45034;BMP280;30771;47.988;-4.186;2024-02-14T12:41:30;100973.47;;;15.62
45034;BMP280;30771;47.988;-4.186;2024-02-14T12:43:58;100970.81;;;15.62
45034;BMP280;30771;47.988;-4.186;2024-02-14T12:46:25;100967.53;;;15.60
45034;BMP280;30771;47.988;-4.186;2024-02-14T12:48:53;100960.38;;;15.60
45034;BMP280;30771;47.988;-4.186;2024-02-14T12:51:20;100956.91;;;15.60
45034;BMP280;30771;47.988;-4.186;2024-02-14T12:53:47;100946.78;;;15.57
45034;BMP280;30771;47.988;-4.186;2024-02-14T12:56:14;100946.16;;;15.55
45034;BMP280;30771;47.988;-4.186;2024-02-14T12:58:41;100942.91;;;15.53
45034;BMP280;30771;47.988;-4.186;2024-02-14T13:01:09;100931.31;;;15.47
45034;BMP280;30771;47.988;-4.186;2024-02-14T13:03:37;100933.03;;;15.42
45034;BMP280;30771;47.988;-4.186;2024-02-14T13:06:05;100929.19;;;15.38
45034;BMP280;30771;47.988;-4.186;2024-02-14T13:08:32;100922.97;;;15.32
45034;BMP280;30771;47.988;-4.186;2024-02-14T13:10:59;100917.50;;;15.27
45034;BMP280;30771;47.988;-4.186;2024-02-14T13:13:25;100896.97;;;15.23
45034;BMP280;30771;47.988;-4.186;2024-02-14T13:15:52;100898.56;;;15.24
45034;BMP280;30771;47.988;-4.186;2024-02-14T13:18:19;100888.78;;;15.24
45034;BMP280;30771;47.988;-4.186;2024-02-14T13:20:46;100886.34;;;15.23
45034;BMP280;30771;47.988;-4.186;2024-02-14T13:23:14;100881.22;;;15.21
45034;BMP280;30771;47.988;-4.186;2024-02-14T13:25:41;100879.84;;;15.19
45034;BMP280;30771;47.988;-4.186;2024-02-14T13:28:08;100869.25;;;15.19
45034;BMP280;30771;47.988;-4.186;2024-02-14T13:30:35;100862.50;;;15.16
45034;BMP280;30771;47.988;-4.186;2024-02-14T13:33:04;100846.97;;;15.20
45034;BMP280;30771;47.988;-4.186;2024-02-14T13:35:31;100850.88;;;15.17
45034;BMP280;30771;47.988;-4.186;2024-02-14T13:37:58;100838.22;;;15.19
45034;BMP280;30771;47.988;-4.186;2024-02-14T13:40:25;100839.09;;;15.13
45034;BMP280;30771;47.988;-4.186;2024-02-14T13:42:52;100832.19;;;15.12
45034;BMP280;30771;47.988;-4.186;2024-02-14T13:45:18;100834.00;;;15.12
45034;BMP280;30771;47.988;-4.186;2024-02-14T13:47:45;100826.06;;;15.12